sensor_id;sensor_type;location;lat;lon;timestamp;P1;durP1;ratioP1;P2;durP2;ratioP2
36449;SDS011;22475;51.390;7.180;2022-07-01T00:00:16;1.52;;;1.42;;
36449;SDS011;22475;51.390;7.180;2022-07-01T00:02:44;3.85;;;2.28;;
36449;SDS011;22475;51.390;7.180;2022-07-01T00:05:12;1.83;;;1.73;;
36449;SDS011;22475;51.390;7.180;2022-07-01T00:07:39;3.20;;;2.90;;
36449;SDS011;22475;51.390;7.180;2022-07-01T00:10:06;2.72;;;2.42;;
36449;SDS011;22475;51.390;7.180;2022-07-01T00:12:33;2.85;;;2.65;;
36449;SDS011;22475;51.390;7.180;2022-07-01T00:15:00;2.28;;;2.03;;
36449;SDS011;22475;51.390;7.180;2022-07-01T00:17:27;1.27;;;1.17;;
36449;SDS011;22475;51.390;7.180;2022-07-01T00:19:56;2.53;;;2.42;;
36449;SDS011;22475;51.390;7.180;2022-07-01T00:22:22;2.55;;;2.35;;
36449;SDS011;22475;51.390;7.180;2022-07-01T00:24:50;2.28;;;2.08;;
36449;SDS011;22475;51.390;7.180;2022-07-01T00:27:17;2.65;;;2.45;;
36449;SDS011;22475;51.390;7.180;2022-07-01T00:29:44;2.35;;;2.25;;
36449;SDS011;22475;51.390;7.180;2022-07-01T00:32:11;4.38;;;3.95;;
36449;SDS011;22475;51.390;7.180;2022-07-01T00:34:38;2.78;;;2.25;;
36449;SDS011;22475;51.390;7.180;2022-07-01T00:37:07;4.97;;;4.47;;
36449;SDS011;22475;51.390;7.180;2022-07-01T00:39:34;3.90;;;3.17;;
36449;SDS011;22475;51.390;7.180;2022-07-01T00:42:02;2.17;;;2.08;;
36449;SDS011;22475;51.390;7.180;2022-07-01T00:44:29;1.98;;;1.88;;
36449;SDS011;22475;51.390;7.180;2022-07-01T00:46:58;4.28;;;3.97;;
36449;SDS011;22475;51.390;7.180;2022-07-01T00:49:27;6.07;;;5.55;;
36449;SDS011;22475;51.390;7.180;2022-07-01T00:51:55;6.40;;;5.90;;
36449;SDS011;22475;51.390;7.180;2022-07-01T00:54:24;3.90;;;3.60;;
36449;SDS011;22475;51.390;7.180;2022-07-01T00:56:52;3.20;;;3.00;;
36449;SDS011;22475;51.390;7.180;2022-07-01T00:59:19;3.00;;;2.58;;
36449;SDS011;22475;51.390;7.180;2022-07-01T01:01:46;5.60;;;4.82;;
36449;SDS011;22475;51.390;7.180;2022-07-01T01:04:16;4.47;;;4.18;;
36449;SDS011;22475;51.390;7.180;2022-07-01T01:06:43;7.85;;;7.07;;
36449;SDS011;22475;51.390;7.180;2022-07-01T01:09:10;4.72;;;4.35;;
36449;SDS011;22475;51.390;7.180;2022-07-01T01:11:38;4.50;;;3.75;;
36449;SDS011;22475;51.390;7.180;2022-07-01T01:14:05;7.45;;;6.60;;
36449;SDS011;22475;51.390;7.180;2022-07-01T01:16:32;6.90;;;6.30;;
36449;SDS011;22475;51.390;7.180;2022-07-01T01:19:02;3.20;;;2.90;;
36449;SDS011;22475;51.390;7.180;2022-07-01T01:21:32;10.43;;;4.40;;
36449;SDS011;22475;51.390;7.180;2022-07-01T01:23:59;6.32;;;5.72;;
36449;SDS011;22475;51.390;7.180;2022-07-01T01:26:26;5.18;;;4.75;;
36449;SDS011;22475;51.390;7.180;2022-07-01T01:28:53;6.00;;;3.08;;
36449;SDS011;22475;51.390;7.180;2022-07-01T01:31:27;5.63;;;4.78;;
36449;SDS011;22475;51.390;7.180;2022-07-01T01:33:55;4.78;;;3.55;;
36449;SDS011;22475;51.390;7.180;2022-07-01T01:36:22;3.80;;;2.45;;
36449;SDS011;22475;51.390;7.180;2022-07-01T01:38:51;2.65;;;2.45;;
36449;SDS011;22475;51.390;7.180;2022-07-01T01:41:18;3.45;;;2.53;;
36449;SDS011;22475;51.390;7.180;2022-07-01T01:43:45;9.73;;;2.97;;
36449;SDS011;22475;51.390;7.180;2022-07-01T01:46:12;2.63;;;2.42;;
36449;SDS011;22475;51.390;7.180;2022-07-01T01:48:39;2.28;;;1.98;;
36449;SDS011;22475;51.390;7.180;2022-07-01T01:51:06;2.72;;;2.15;;
36449;SDS011;22475;51.390;7.180;2022-07-01T01:53:32;2.72;;;2.53;;
36449;SDS011;22475;51.390;7.180;2022-07-01T01:56:01;2.60;;;2.40;;
36449;SDS011;22475;51.390;7.180;2022-07-01T01:58:28;2.35;;;2.13;;
36449;SDS011;22475;51.390;7.180;2022-07-01T02:00:54;1.80;;;1.70;;
36449;SDS011;22475;51.390;7.180;2022-07-01T02:03:21;2.08;;;1.92;;
36449;SDS011;22475;51.390;7.180;2022-07-01T02:05:48;1.90;;;1.80;;
36449;SDS011;22475;51.390;7.180;2022-07-01T02:08:18;5.15;;;2.50;;
36449;SDS011;22475;51.390;7.180;2022-07-01T02:10:45;1.60;;;1.50;;
36449;SDS011;22475;51.390;7.180;2022-07-01T02:13:13;2.08;;;1.98;;
36449;SDS011;22475;51.390;7.180;2022-07-01T02:15:40;3.90;;;2.10;;
36449;SDS011;22475;51.390;7.180;2022-07-01T02:18:09;1.77;;;1.67;;
36449;SDS011;22475;51.390;7.180;2022-07-01T02:20:36;3.50;;;2.00;;
36449;SDS011;22475;51.390;7.180;2022-07-01T02:23:03;2.92;;;2.10;;
36449;SDS011;22475;51.390;7.180;2022-07-01T02:25:32;1.55;;;1.45;;
36449;SDS011;22475;51.390;7.180;2022-07-01T02:27:59;2.33;;;1.63;;
36449;SDS011;22475;51.390;7.180;2022-07-01T02:30:30;1.83;;;1.58;;
36449;SDS011;22475;51.390;7.180;2022-07-01T02:33:00;3.67;;;1.80;;
36449;SDS011;22475;51.390;7.180;2022-07-01T02:35:27;3.38;;;1.98;;
36449;SDS011;22475;51.390;7.180;2022-07-01T02:37:54;2.55;;;2.33;;
36449;SDS011;22475;51.390;7.180;2022-07-01T02:40:21;2.05;;;1.95;;
36449;SDS011;22475;51.390;7.180;2022-07-01T02:42:48;2.78;;;1.85;;
36449;SDS011;22475;51.390;7.180;2022-07-01T02:45:15;3.50;;;2.72;;
36449;SDS011;22475;51.390;7.180;2022-07-01T02:47:43;1.67;;;1.58;;
36449;SDS011;22475;51.390;7.180;2022-07-01T02:50:11;3.08;;;1.83;;
36449;SDS011;22475;51.390;7.180;2022-07-01T02:52:40;2.47;;;2.28;;
36449;SDS011;22475;51.390;7.180;2022-07-01T02:55:09;4.75;;;1.95;;
36449;SDS011;22475;51.390;7.180;2022-07-01T03:00:06;4.22;;;2.08;;
36449;SDS011;22475;51.390;7.180;2022-07-01T03:02:35;2.28;;;1.80;;
36449;SDS011;22475;51.390;7.180;2022-07-01T03:05:04;1.20;;;1.10;;
36449;SDS011;22475;51.390;7.180;2022-07-01T03:07:32;5.65;;;2.30;;
36449;SDS011;22475;51.390;7.180;2022-07-01T03:09:59;2.88;;;1.85;;
36449;SDS011;22475;51.390;7.180;2022-07-01T03:12:26;3.53;;;2.55;;
36449;SDS011;22475;51.390;7.180;2022-07-01T03:14:54;6.43;;;2.38;;
36449;SDS011;22475;51.390;7.180;2022-07-01T03:17:36;1.88;;;1.15;;
36449;SDS011;22475;51.390;7.180;2022-07-01T03:20:06;6.97;;;2.58;;
36449;SDS011;22475;51.390;7.180;2022-07-01T03:22:35;5.20;;;2.97;;
36449;SDS011;22475;51.390;7.180;2022-07-01T03:25:03;4.05;;;1.80;;
36449;SDS011;22475;51.390;7.180;2022-07-01T03:27:31;2.88;;;2.67;;
36449;SDS011;22475;51.390;7.180;2022-07-01T03:29:59;4.15;;;2.83;;
36449;SDS011;22475;51.390;7.180;2022-07-01T03:32:26;1.23;;;0.98;;
36449;SDS011;22475;51.390;7.180;2022-07-01T03:34:53;3.85;;;2.30;;
36449;SDS011;22475;51.390;7.180;2022-07-01T03:37:22;1.08;;;1.00;;
36449;SDS011;22475;51.390;7.180;2022-07-01T03:39:49;2.75;;;2.55;;
36449;SDS011;22475;51.390;7.180;2022-07-01T03:42:18;4.65;;;2.25;;
36449;SDS011;22475;51.390;7.180;2022-07-01T03:44:46;10.13;;;3.45;;
36449;SDS011;22475;51.390;7.180;2022-07-01T03:47:13;2.92;;;2.58;;
36449;SDS011;22475;51.390;7.180;2022-07-01T03:49:42;5.93;;;4.05;;
36449;SDS011;22475;51.390;7.180;2022-07-01T03:52:09;4.35;;;3.17;;
36449;SDS011;22475;51.390;7.180;2022-07-01T03:54:37;6.60;;;2.88;;
36449;SDS011;22475;51.390;7.180;2022-07-01T03:57:04;5.20;;;1.35;;
36449;SDS011;22475;51.390;7.180;2022-07-01T03:59:33;3.63;;;3.33;;
36449;SDS011;22475;51.390;7.180;2022-07-01T04:02:02;4.30;;;3.37;;
36449;SDS011;22475;51.390;7.180;2022-07-01T04:04:30;2.53;;;1.77;;
36449;SDS011;22475;51.390;7.180;2022-07-01T04:06:58;5.75;;;3.30;;
36449;SDS011;22475;51.390;7.180;2022-07-01T04:09:27;5.22;;;2.80;;
36449;SDS011;22475;51.390;7.180;2022-07-01T04:11:56;4.05;;;2.65;;
36449;SDS011;22475;51.390;7.180;2022-07-01T04:14:23;2.03;;;1.58;;
36449;SDS011;22475;51.390;7.180;2022-07-01T04:16:51;5.78;;;3.53;;
36449;SDS011;22475;51.390;7.180;2022-07-01T04:19:19;5.00;;;2.53;;
36449;SDS011;22475;51.390;7.180;2022-07-01T04:21:46;3.50;;;3.20;;
36449;SDS011;22475;51.390;7.180;2022-07-01T04:24:30;3.72;;;2.70;;
36449;SDS011;22475;51.390;7.180;2022-07-01T04:27:00;2.58;;;2.35;;
36449;SDS011;22475;51.390;7.180;2022-07-01T04:29:27;2.83;;;2.63;;
36449;SDS011;22475;51.390;7.180;2022-07-01T04:31:55;4.50;;;3.75;;
36449;SDS011;22475;51.390;7.180;2022-07-01T04:34:25;3.53;;;3.22;;
36449;SDS011;22475;51.390;7.180;2022-07-01T04:36:52;7.18;;;3.25;;
36449;SDS011;22475;51.390;7.180;2022-07-01T04:39:19;3.75;;;3.00;;
36449;SDS011;22475;51.390;7.180;2022-07-01T04:41:45;2.75;;;2.38;;
36449;SDS011;22475;51.390;7.180;2022-07-01T04:44:29;10.98;;;2.65;;
36449;SDS011;22475;51.390;7.180;2022-07-01T04:46:57;4.85;;;2.22;;
36449;SDS011;22475;51.390;7.180;2022-07-01T04:49:24;14.30;;;4.57;;
36449;SDS011;22475;51.390;7.180;2022-07-01T04:51:51;4.00;;;1.67;;
36449;SDS011;22475;51.390;7.180;2022-07-01T04:54:18;5.00;;;2.55;;
36449;SDS011;22475;51.390;7.180;2022-07-01T04:56:45;4.40;;;2.15;;
36449;SDS011;22475;51.390;7.180;2022-07-01T04:59:12;4.53;;;2.50;;
36449;SDS011;22475;51.390;7.180;2022-07-01T05:01:41;3.00;;;2.00;;
36449;SDS011;22475;51.390;7.180;2022-07-01T05:04:09;2.83;;;1.55;;
36449;SDS011;22475;51.390;7.180;2022-07-01T05:06:36;2.78;;;2.50;;
36449;SDS011;22475;51.390;7.180;2022-07-01T05:09:03;3.90;;;2.45;;
36449;SDS011;22475;51.390;7.180;2022-07-01T11:10:23;1.30;;;0.55;;
36449;SDS011;22475;51.390;7.180;2022-07-01T11:12:51;5.32;;;1.13;;
36449;SDS011;22475;51.390;7.180;2022-07-01T11:15:18;0.68;;;0.60;;
36449;SDS011;22475;51.390;7.180;2022-07-01T11:17:49;1.02;;;0.95;;
36449;SDS011;22475;51.390;7.180;2022-07-01T11:20:16;2.85;;;1.40;;
36449;SDS011;22475;51.390;7.180;2022-07-01T11:22:43;1.23;;;0.80;;
36449;SDS011;22475;51.390;7.180;2022-07-01T11:25:11;1.40;;;0.88;;
36449;SDS011;22475;51.390;7.180;2022-07-01T11:27:44;0.63;;;0.43;;
36449;SDS011;22475;51.390;7.180;2022-07-01T11:30:12;1.15;;;1.05;;
36449;SDS011;22475;51.390;7.180;2022-07-01T11:32:41;0.80;;;0.55;;
36449;SDS011;22475;51.390;7.180;2022-07-01T11:35:10;0.70;;;0.70;;
36449;SDS011;22475;51.390;7.180;2022-07-01T11:38:06;0.70;;;0.60;;
36449;SDS011;22475;51.390;7.180;2022-07-01T11:40:52;0.52;;;0.52;;
36449;SDS011;22475;51.390;7.180;2022-07-01T11:43:22;0.75;;;0.70;;
36449;SDS011;22475;51.390;7.180;2022-07-01T11:45:50;2.33;;;0.63;;
36449;SDS011;22475;51.390;7.180;2022-07-01T11:48:31;1.20;;;0.55;;
36449;SDS011;22475;51.390;7.180;2022-07-01T11:51:00;0.65;;;0.65;;
36449;SDS011;22475;51.390;7.180;2022-07-01T11:53:31;0.98;;;0.90;;
36449;SDS011;22475;51.390;7.180;2022-07-01T11:55:58;1.48;;;0.95;;
36449;SDS011;22475;51.390;7.180;2022-07-01T12:01:19;0.82;;;0.73;;
36449;SDS011;22475;51.390;7.180;2022-07-01T12:03:47;1.08;;;0.68;;
36449;SDS011;22475;51.390;7.180;2022-07-01T12:06:14;0.75;;;0.68;;
36449;SDS011;22475;51.390;7.180;2022-07-01T12:08:43;0.95;;;0.85;;
36449;SDS011;22475;51.390;7.180;2022-07-01T12:11:11;0.60;;;0.50;;
36449;SDS011;22475;51.390;7.180;2022-07-01T12:13:38;1.17;;;0.80;;
36449;SDS011;22475;51.390;7.180;2022-07-01T12:16:07;1.35;;;0.73;;
36449;SDS011;22475;51.390;7.180;2022-07-01T12:18:34;0.73;;;0.40;;
36449;SDS011;22475;51.390;7.180;2022-07-01T12:21:02;0.60;;;0.60;;
36449;SDS011;22475;51.390;7.180;2022-07-01T12:23:29;1.85;;;0.55;;
36449;SDS011;22475;51.390;7.180;2022-07-01T12:25:57;0.98;;;0.43;;
36449;SDS011;22475;51.390;7.180;2022-07-01T12:28:28;0.70;;;0.63;;
36449;SDS011;22475;51.390;7.180;2022-07-01T12:31:00;2.28;;;0.60;;
36449;SDS011;22475;51.390;7.180;2022-07-01T12:33:35;0.30;;;0.30;;
36449;SDS011;22475;51.390;7.180;2022-07-01T12:36:03;0.63;;;0.30;;
36449;SDS011;22475;51.390;7.180;2022-07-01T12:38:31;0.75;;;0.47;;
36449;SDS011;22475;51.390;7.180;2022-07-01T12:40:59;0.40;;;0.40;;
36449;SDS011;22475;51.390;7.180;2022-07-01T12:43:27;1.00;;;0.60;;
36449;SDS011;22475;51.390;7.180;2022-07-01T12:45:57;0.88;;;0.77;;
36449;SDS011;22475;51.390;7.180;2022-07-01T12:48:25;1.30;;;0.40;;
36449;SDS011;22475;51.390;7.180;2022-07-01T12:50:55;0.52;;;0.52;;
36449;SDS011;22475;51.390;7.180;2022-07-01T12:53:23;0.65;;;0.63;;
36449;SDS011;22475;51.390;7.180;2022-07-01T12:55:51;1.38;;;0.47;;
36449;SDS011;22475;51.390;7.180;2022-07-01T12:58:20;1.08;;;0.77;;
36449;SDS011;22475;51.390;7.180;2022-07-01T13:00:49;0.40;;;0.40;;
36449;SDS011;22475;51.390;7.180;2022-07-01T13:03:20;0.88;;;0.50;;
36449;SDS011;22475;51.390;7.180;2022-07-01T13:05:48;0.80;;;0.75;;
36449;SDS011;22475;51.390;7.180;2022-07-01T13:08:17;1.00;;;1.00;;
36449;SDS011;22475;51.390;7.180;2022-07-01T13:10:45;1.25;;;1.15;;
36449;SDS011;22475;51.390;7.180;2022-07-01T13:13:13;0.85;;;0.60;;
36449;SDS011;22475;51.390;7.180;2022-07-01T13:15:42;1.30;;;0.30;;
36449;SDS011;22475;51.390;7.180;2022-07-01T13:18:09;0.55;;;0.38;;
36449;SDS011;22475;51.390;7.180;2022-07-01T13:20:39;3.13;;;0.65;;
36449;SDS011;22475;51.390;7.180;2022-07-01T13:23:06;1.23;;;0.50;;
36449;SDS011;22475;51.390;7.180;2022-07-01T13:25:34;0.30;;;0.30;;
36449;SDS011;22475;51.390;7.180;2022-07-01T13:28:01;0.40;;;0.40;;
36449;SDS011;22475;51.390;7.180;2022-07-01T13:30:29;0.65;;;0.38;;
36449;SDS011;22475;51.390;7.180;2022-07-01T13:32:56;0.63;;;0.40;;
36449;SDS011;22475;51.390;7.180;2022-07-01T13:35:23;0.55;;;0.50;;
36449;SDS011;22475;51.390;7.180;2022-07-01T13:37:50;0.45;;;0.45;;
36449;SDS011;22475;51.390;7.180;2022-07-01T13:40:18;0.30;;;0.30;;
36449;SDS011;22475;51.390;7.180;2022-07-01T13:42:48;0.40;;;0.40;;
36449;SDS011;22475;51.390;7.180;2022-07-01T13:45:15;0.45;;;0.45;;
36449;SDS011;22475;51.390;7.180;2022-07-01T13:47:42;4.10;;;0.65;;
36449;SDS011;22475;51.390;7.180;2022-07-01T13:50:09;0.30;;;0.30;;
36449;SDS011;22475;51.390;7.180;2022-07-01T13:52:37;1.63;;;1.40;;
36449;SDS011;22475;51.390;7.180;2022-07-01T13:55:05;3.63;;;0.73;;
36449;SDS011;22475;51.390;7.180;2022-07-01T13:57:32;0.55;;;0.55;;
36449;SDS011;22475;51.390;7.180;2022-07-01T14:00:00;2.55;;;0.32;;
36449;SDS011;22475;51.390;7.180;2022-07-01T14:02:27;1.70;;;0.47;;
36449;SDS011;22475;51.390;7.180;2022-07-01T14:04:54;6.25;;;0.50;;
36449;SDS011;22475;51.390;7.180;2022-07-01T14:07:21;1.42;;;0.60;;
36449;SDS011;22475;51.390;7.180;2022-07-01T14:09:48;2.25;;;0.70;;
36449;SDS011;22475;51.390;7.180;2022-07-01T14:12:15;0.85;;;0.70;;
36449;SDS011;22475;51.390;7.180;2022-07-01T14:14:42;2.00;;;0.63;;
36449;SDS011;22475;51.390;7.180;2022-07-01T14:17:10;2.42;;;0.60;;
36449;SDS011;22475;51.390;7.180;2022-07-01T14:19:37;1.58;;;0.60;;
36449;SDS011;22475;51.390;7.180;2022-07-01T14:22:04;1.15;;;0.30;;
36449;SDS011;22475;51.390;7.180;2022-07-01T14:24:32;1.02;;;0.30;;
36449;SDS011;22475;51.390;7.180;2022-07-01T14:26:59;1.42;;;0.38;;
36449;SDS011;22475;51.390;7.180;2022-07-01T14:29:26;1.20;;;0.55;;
36449;SDS011;22475;51.390;7.180;2022-07-01T14:31:52;0.55;;;0.40;;
36449;SDS011;22475;51.390;7.180;2022-07-01T14:34:21;3.88;;;0.38;;
36449;SDS011;22475;51.390;7.180;2022-07-01T14:36:47;3.05;;;0.50;;
36449;SDS011;22475;51.390;7.180;2022-07-01T14:39:14;0.28;;;0.28;;
36449;SDS011;22475;51.390;7.180;2022-07-01T14:41:41;3.78;;;0.32;;
36449;SDS011;22475;51.390;7.180;2022-07-01T14:44:14;0.57;;;0.45;;
36449;SDS011;22475;51.390;7.180;2022-07-01T14:46:41;0.45;;;0.30;;
36449;SDS011;22475;51.390;7.180;2022-07-01T14:49:08;0.73;;;0.60;;
36449;SDS011;22475;51.390;7.180;2022-07-01T14:51:36;0.55;;;0.50;;
36449;SDS011;22475;51.390;7.180;2022-07-01T14:54:03;0.30;;;0.30;;
36449;SDS011;22475;51.390;7.180;2022-07-01T14:56:30;0.30;;;0.30;;
36449;SDS011;22475;51.390;7.180;2022-07-01T14:58:57;1.08;;;0.30;;
36449;SDS011;22475;51.390;7.180;2022-07-01T15:01:24;0.77;;;0.30;;
36449;SDS011;22475;51.390;7.180;2022-07-01T15:03:51;3.40;;;0.45;;
36449;SDS011;22475;51.390;7.180;2022-07-01T15:06:17;1.33;;;0.63;;
36449;SDS011;22475;51.390;7.180;2022-07-01T15:08:46;2.05;;;0.35;;
36449;SDS011;22475;51.390;7.180;2022-07-01T15:11:13;0.70;;;0.47;;
36449;SDS011;22475;51.390;7.180;2022-07-01T15:13:40;1.25;;;0.50;;
36449;SDS011;22475;51.390;7.180;2022-07-01T15:16:06;1.50;;;0.60;;
36449;SDS011;22475;51.390;7.180;2022-07-01T15:18:33;0.38;;;0.32;;
36449;SDS011;22475;51.390;7.180;2022-07-01T15:21:00;0.93;;;0.55;;
36449;SDS011;22475;51.390;7.180;2022-07-01T15:23:27;5.72;;;1.00;;
36449;SDS011;22475;51.390;7.180;2022-07-01T15:25:56;2.05;;;0.50;;
36449;SDS011;22475;51.390;7.180;2022-07-01T15:28:24;0.80;;;0.40;;
36449;SDS011;22475;51.390;7.180;2022-07-01T15:30:51;1.38;;;0.40;;
36449;SDS011;22475;51.390;7.180;2022-07-01T15:33:18;0.20;;;0.20;;
36449;SDS011;22475;51.390;7.180;2022-07-01T15:35:45;2.03;;;0.43;;
36449;SDS011;22475;51.390;7.180;2022-07-01T15:38:12;3.50;;;0.52;;
36449;SDS011;22475;51.390;7.180;2022-07-01T15:40:39;5.63;;;0.65;;
36449;SDS011;22475;51.390;7.180;2022-07-01T15:43:07;2.38;;;0.30;;
36449;SDS011;22475;51.390;7.180;2022-07-01T15:45:34;1.88;;;0.80;;
36449;SDS011;22475;51.390;7.180;2022-07-01T15:48:01;0.43;;;0.30;;
36449;SDS011;22475;51.390;7.180;2022-07-01T15:50:31;1.90;;;0.50;;
36449;SDS011;22475;51.390;7.180;2022-07-01T15:52:58;0.70;;;0.68;;
36449;SDS011;22475;51.390;7.180;2022-07-01T15:55:25;0.57;;;0.30;;
36449;SDS011;22475;51.390;7.180;2022-07-01T15:57:52;1.60;;;0.70;;
36449;SDS011;22475;51.390;7.180;2022-07-01T16:00:21;0.85;;;0.40;;
36449;SDS011;22475;51.390;7.180;2022-07-01T16:02:49;0.50;;;0.28;;
36449;SDS011;22475;51.390;7.180;2022-07-01T16:05:16;1.05;;;0.43;;
36449;SDS011;22475;51.390;7.180;2022-07-01T16:07:43;0.22;;;0.20;;
36449;SDS011;22475;51.390;7.180;2022-07-01T16:10:15;0.82;;;0.20;;
36449;SDS011;22475;51.390;7.180;2022-07-01T16:12:51;0.88;;;0.50;;
36449;SDS011;22475;51.390;7.180;2022-07-01T16:15:20;0.70;;;0.52;;
36449;SDS011;22475;51.390;7.180;2022-07-01T16:17:48;1.58;;;0.55;;
36449;SDS011;22475;51.390;7.180;2022-07-01T16:20:15;0.80;;;0.32;;
36449;SDS011;22475;51.390;7.180;2022-07-01T16:22:45;1.38;;;0.50;;
36449;SDS011;22475;51.390;7.180;2022-07-01T16:25:14;0.50;;;0.37;;
36449;SDS011;22475;51.390;7.180;2022-07-01T16:27:43;0.77;;;0.50;;
36449;SDS011;22475;51.390;7.180;2022-07-01T16:30:11;1.58;;;0.45;;
36449;SDS011;22475;51.390;7.180;2022-07-01T16:32:39;0.52;;;0.50;;
36449;SDS011;22475;51.390;7.180;2022-07-01T16:35:08;0.75;;;0.38;;
36449;SDS011;22475;51.390;7.180;2022-07-01T16:37:36;0.47;;;0.40;;
36449;SDS011;22475;51.390;7.180;2022-07-01T16:40:06;0.77;;;0.60;;
36449;SDS011;22475;51.390;7.180;2022-07-01T16:42:38;1.98;;;0.40;;
36449;SDS011;22475;51.390;7.180;2022-07-01T16:45:08;1.15;;;0.35;;
36449;SDS011;22475;51.390;7.180;2022-07-01T16:47:38;2.25;;;0.47;;
36449;SDS011;22475;51.390;7.180;2022-07-01T16:50:08;3.30;;;0.50;;
36449;SDS011;22475;51.390;7.180;2022-07-01T16:52:38;0.93;;;0.40;;
36449;SDS011;22475;51.390;7.180;2022-07-01T16:55:08;0.90;;;0.53;;
36449;SDS011;22475;51.390;7.180;2022-07-01T16:57:37;1.20;;;0.50;;
36449;SDS011;22475;51.390;7.180;2022-07-01T17:00:05;0.75;;;0.35;;
36449;SDS011;22475;51.390;7.180;2022-07-01T17:02:34;3.50;;;1.05;;
36449;SDS011;22475;51.390;7.180;2022-07-01T17:05:03;1.23;;;0.43;;
36449;SDS011;22475;51.390;7.180;2022-07-01T17:07:32;2.83;;;0.32;;
36449;SDS011;22475;51.390;7.180;2022-07-01T17:09:59;2.72;;;0.55;;
36449;SDS011;22475;51.390;7.180;2022-07-01T17:12:27;1.23;;;0.47;;
36449;SDS011;22475;51.390;7.180;2022-07-01T17:14:54;0.70;;;0.40;;
36449;SDS011;22475;51.390;7.180;2022-07-01T17:17:23;0.45;;;0.40;;
36449;SDS011;22475;51.390;7.180;2022-07-01T17:19:50;0.30;;;0.30;;
36449;SDS011;22475;51.390;7.180;2022-07-01T17:22:24;4.35;;;0.50;;
36449;SDS011;22475;51.390;7.180;2022-07-01T17:25:01;2.70;;;0.40;;
36449;SDS011;22475;51.390;7.180;2022-07-01T17:27:41;1.63;;;0.60;;
36449;SDS011;22475;51.390;7.180;2022-07-01T17:30:17;1.05;;;0.40;;
36449;SDS011;22475;51.390;7.180;2022-07-01T17:32:50;0.40;;;0.40;;
36449;SDS011;22475;51.390;7.180;2022-07-01T17:35:21;0.82;;;0.40;;
36449;SDS011;22475;51.390;7.180;2022-07-01T17:37:53;3.22;;;0.45;;
36449;SDS011;22475;51.390;7.180;2022-07-01T17:40:23;0.63;;;0.43;;
36449;SDS011;22475;51.390;7.180;2022-07-01T17:42:51;0.68;;;0.45;;
36449;SDS011;22475;51.390;7.180;2022-07-01T17:45:20;0.52;;;0.40;;
36449;SDS011;22475;51.390;7.180;2022-07-01T17:47:48;4.13;;;0.73;;
36449;SDS011;22475;51.390;7.180;2022-07-01T17:50:16;1.38;;;0.52;;
36449;SDS011;22475;51.390;7.180;2022-07-01T17:52:45;0.50;;;0.50;;
36449;SDS011;22475;51.390;7.180;2022-07-01T17:55:15;0.40;;;0.40;;
36449;SDS011;22475;51.390;7.180;2022-07-01T17:57:43;0.57;;;0.57;;
36449;SDS011;22475;51.390;7.180;2022-07-01T18:00:11;1.13;;;0.55;;
36449;SDS011;22475;51.390;7.180;2022-07-01T18:02:38;1.05;;;0.50;;
36449;SDS011;22475;51.390;7.180;2022-07-01T18:05:07;0.98;;;0.60;;
36449;SDS011;22475;51.390;7.180;2022-07-01T18:07:36;1.70;;;0.80;;
36449;SDS011;22475;51.390;7.180;2022-07-01T18:10:03;1.13;;;0.60;;
36449;SDS011;22475;51.390;7.180;2022-07-01T18:12:33;4.30;;;0.60;;
36449;SDS011;22475;51.390;7.180;2022-07-01T18:15:02;1.88;;;0.68;;
36449;SDS011;22475;51.390;7.180;2022-07-01T18:17:36;0.88;;;0.70;;
36449;SDS011;22475;51.390;7.180;2022-07-01T18:20:08;0.93;;;0.40;;
36449;SDS011;22475;51.390;7.180;2022-07-01T18:22:43;0.60;;;0.45;;
36449;SDS011;22475;51.390;7.180;2022-07-01T18:25:13;2.97;;;0.57;;
36449;SDS011;22475;51.390;7.180;2022-07-01T18:27:51;1.35;;;0.40;;
36449;SDS011;22475;51.390;7.180;2022-07-01T18:30:22;0.50;;;0.50;;
36449;SDS011;22475;51.390;7.180;2022-07-01T18:32:53;0.57;;;0.57;;
36449;SDS011;22475;51.390;7.180;2022-07-01T18:35:25;1.73;;;0.55;;
36449;SDS011;22475;51.390;7.180;2022-07-01T18:37:57;0.50;;;0.50;;
36449;SDS011;22475;51.390;7.180;2022-07-01T18:40:24;0.90;;;0.77;;
36449;SDS011;22475;51.390;7.180;2022-07-01T18:42:54;1.15;;;0.55;;
36449;SDS011;22475;51.390;7.180;2022-07-01T18:45:22;1.73;;;0.50;;
36449;SDS011;22475;51.390;7.180;2022-07-01T18:47:49;1.45;;;0.50;;
36449;SDS011;22475;51.390;7.180;2022-07-01T18:50:18;0.55;;;0.45;;
36449;SDS011;22475;51.390;7.180;2022-07-01T18:52:46;1.15;;;0.60;;
36449;SDS011;22475;51.390;7.180;2022-07-01T18:55:13;1.08;;;0.60;;
36449;SDS011;22475;51.390;7.180;2022-07-01T18:57:40;0.50;;;0.50;;
36449;SDS011;22475;51.390;7.180;2022-07-01T19:00:10;0.60;;;0.40;;
36449;SDS011;22475;51.390;7.180;2022-07-01T19:02:38;2.92;;;0.60;;
36449;SDS011;22475;51.390;7.180;2022-07-01T19:05:06;3.35;;;0.60;;
36449;SDS011;22475;51.390;7.180;2022-07-01T19:07:34;0.82;;;0.45;;
36449;SDS011;22475;51.390;7.180;2022-07-01T19:10:02;0.70;;;0.43;;
36449;SDS011;22475;51.390;7.180;2022-07-01T19:12:30;0.45;;;0.45;;
36449;SDS011;22475;51.390;7.180;2022-07-01T19:14:57;0.47;;;0.40;;
36449;SDS011;22475;51.390;7.180;2022-07-01T19:17:26;1.70;;;0.88;;
36449;SDS011;22475;51.390;7.180;2022-07-01T19:19:53;0.40;;;0.40;;
36449;SDS011;22475;51.390;7.180;2022-07-01T19:22:19;0.47;;;0.47;;
36449;SDS011;22475;51.390;7.180;2022-07-01T19:24:46;1.42;;;0.45;;
36449;SDS011;22475;51.390;7.180;2022-07-01T19:27:13;0.50;;;0.38;;
36449;SDS011;22475;51.390;7.180;2022-07-01T19:29:40;0.35;;;0.35;;
36449;SDS011;22475;51.390;7.180;2022-07-01T19:32:07;0.40;;;0.38;;
36449;SDS011;22475;51.390;7.180;2022-07-01T19:34:35;0.93;;;0.63;;
36449;SDS011;22475;51.390;7.180;2022-07-01T19:37:02;1.30;;;0.60;;
36449;SDS011;22475;51.390;7.180;2022-07-01T19:39:30;0.40;;;0.40;;
36449;SDS011;22475;51.390;7.180;2022-07-01T19:41:57;0.98;;;0.50;;
36449;SDS011;22475;51.390;7.180;2022-07-01T19:44:24;0.50;;;0.50;;
36449;SDS011;22475;51.390;7.180;2022-07-01T19:46:51;2.25;;;0.60;;
36449;SDS011;22475;51.390;7.180;2022-07-01T19:49:17;0.60;;;0.32;;
36449;SDS011;22475;51.390;7.180;2022-07-01T19:51:46;0.55;;;0.55;;
36449;SDS011;22475;51.390;7.180;2022-07-01T19:54:12;0.60;;;0.60;;
36449;SDS011;22475;51.390;7.180;2022-07-01T19:56:39;1.05;;;0.60;;
36449;SDS011;22475;51.390;7.180;2022-07-01T19:59:06;0.43;;;0.43;;
36449;SDS011;22475;51.390;7.180;2022-07-01T20:01:33;2.78;;;0.43;;
36449;SDS011;22475;51.390;7.180;2022-07-01T20:04:01;0.80;;;0.52;;
36449;SDS011;22475;51.390;7.180;2022-07-01T20:06:28;1.35;;;0.52;;
36449;SDS011;22475;51.390;7.180;2022-07-01T20:08:56;0.50;;;0.45;;
36449;SDS011;22475;51.390;7.180;2022-07-01T20:11:23;1.10;;;1.10;;
36449;SDS011;22475;51.390;7.180;2022-07-01T20:13:50;0.40;;;0.40;;
36449;SDS011;22475;51.390;7.180;2022-07-01T20:16:17;1.88;;;0.60;;
36449;SDS011;22475;51.390;7.180;2022-07-01T20:18:44;3.88;;;0.50;;
36449;SDS011;22475;51.390;7.180;2022-07-01T20:21:11;0.70;;;0.55;;
36449;SDS011;22475;51.390;7.180;2022-07-01T20:23:38;0.55;;;0.55;;
36449;SDS011;22475;51.390;7.180;2022-07-01T20:26:06;0.45;;;0.40;;
36449;SDS011;22475;51.390;7.180;2022-07-01T20:28:33;0.38;;;0.38;;
36449;SDS011;22475;51.390;7.180;2022-07-01T20:31:00;1.13;;;0.60;;
36449;SDS011;22475;51.390;7.180;2022-07-01T20:33:28;3.20;;;1.05;;
36449;SDS011;22475;51.390;7.180;2022-07-01T20:35:55;0.82;;;0.60;;
36449;SDS011;22475;51.390;7.180;2022-07-01T20:38:22;0.75;;;0.70;;
36449;SDS011;22475;51.390;7.180;2022-07-01T20:40:49;0.70;;;0.65;;
36449;SDS011;22475;51.390;7.180;2022-07-01T20:43:17;4.80;;;0.77;;
36449;SDS011;22475;51.390;7.180;2022-07-01T20:45:44;2.95;;;0.90;;
36449;SDS011;22475;51.390;7.180;2022-07-01T20:48:11;0.77;;;0.60;;
36449;SDS011;22475;51.390;7.180;2022-07-01T20:50:38;1.58;;;1.08;;
36449;SDS011;22475;51.390;7.180;2022-07-01T20:53:04;1.60;;;1.05;;
36449;SDS011;22475;51.390;7.180;2022-07-01T20:55:31;3.00;;;0.95;;
36449;SDS011;22475;51.390;7.180;2022-07-01T20:57:58;0.80;;;0.60;;